Time;durP1;ratioP1;P1;durP2;ratioP2;P2;SDS_P1;SDS_P2;PMS_P1;PMS_P2;Temp;Humidity;BMP_temperature;BMP_pressure;BME280_temperature;BME280_humidity;BME280_pressure;Samples;Min_cycle;Max_cycle;Signal;HPM_P1;HPM_P2
2022/08/25 19:14:10;;;;;;;14.20;3.22;;;;;;;28.96;44.81;98173.78;5071398;27;1388645;-80
2022/08/25 19:16:38;;;;;;;14.82;3.35;;;;;;;28.92;44.70;98161.09;5095727;28;20032;-82
2022/08/25 19:19:06;;;;;;;11.57;3.10;;;;;;;28.86;44.67;98165.56;5082233;28;20039;-82
2022/08/25 19:21:32;;;;;;;;;;;;;;;28.87;44.81;98164.53;5074810;28;20580;-81
2022/08/25 19:24:01;;;;;;;19.83;3.13;;;;;;;28.87;44.83;98165.34;5102230;28;19916;-82
2022/08/25 19:26:27;;;;;;;13.13;3.35;;;;;;;28.81;44.93;98162.84;5079157;28;20028;-83
2022/08/25 19:28:52;;;;;;;10.43;3.33;;;;;;;28.75;45.16;98163.84;5060103;28;20046;-83
2022/08/25 19:31:23;;;;;;;13.98;2.95;;;;;;;28.78;45.16;98168.72;5081250;28;20040;-83
2022/08/25 19:33:51;;;;;;;10.40;3.20;;;;;;;28.80;45.19;98177.34;5080703;28;20399;-81
2022/08/25 19:36:17;;;;;;;9.65;3.30;;;;;;;28.76;44.96;98158.22;5099436;28;20055;-82
2022/08/25 19:38:46;;;;;;;20.35;3.42;;;;;;;28.86;45.05;98152.97;5077021;28;20024;-81
2022/08/25 19:41:15;;;;;;;19.30;3.65;;;;;;;28.84;45.00;98155.13;5079876;28;20047;-82
2022/08/25 19:43:43;;;;;;;17.83;3.78;;;;;;;28.84;45.21;98154.28;5096039;28;20020;-81
2022/08/25 19:46:10;;;;;;;15.90;3.35;;;;;;;28.87;45.60;98154.59;5097999;28;20429;-82
2022/08/25 19:48:36;;;;;;;11.07;3.28;;;;;;;28.87;45.40;98154.59;5101297;28;20088;-81
2022/08/25 19:51:02;;;;;;;14.57;3.55;;;;;;;28.82;45.46;98137.63;5079555;28;20036;-81
2022/08/25 19:53:35;;;;;;;16.48;3.63;;;;;;;28.85;45.82;98150.53;5082894;28;20051;-83
2022/08/25 19:56:02;;;;;;;16.52;3.97;;;;;;;28.77;45.63;98130.31;5098011;28;20028;-81
2022/08/25 19:58:30;;;;;;;16.42;3.35;;;;;;;28.76;45.76;98131.34;5069773;28;20480;-78
2022/08/25 20:00:56;;;;;;;19.33;3.53;;;;;;;28.83;46.06;98131.19;5075152;28;20032;-81
2022/08/25 20:03:30;;;;;;;13.68;3.78;;;;;;;28.80;45.98;98127.13;5044958;28;20047;-81
2022/08/25 20:05:58;;;;;;;17.73;3.30;;;;;;;28.75;46.01;98123.56;5076973;28;20071;-83
2022/08/25 20:08:25;;;;;;;12.55;3.33;;;;;;;28.63;45.94;98108.38;5079464;28;20032;-82
2022/08/25 20:10:51;;;;;;;11.18;3.65;;;;;;;28.64;46.06;98103.84;5064553;28;20024;-83
2022/08/25 20:13:17;;;;;;;11.90;3.13;;;;;;;28.64;45.93;98111.91;5041155;28;20052;-82
2022/08/25 20:15:47;;;;;;;17.30;4.18;;;;;;;28.61;44.97;98107.03;5049624;28;20039;-83
2022/08/25 20:18:17;;;;;;;19.45;3.85;;;;;;;28.63;44.38;98110.25;5063605;28;20028;-83
2022/08/25 20:20:42;;;;;;;16.77;3.65;;;;;;;28.61;43.95;98113.19;5046915;28;20381;-81
2022/08/25 20:25:52;;;;;;;23.27;3.47;;;;;;;28.60;39.45;98116.13;5049641;28;20082;-81
2022/08/25 20:28:18;;;;;;;24.13;3.40;;;;;;;28.60;39.09;98114.25;5037198;28;20064;-74
2022/08/25 20:30:44;;;;;;;27.08;4.05;;;;;;;28.62;39.19;98117.53;5055187;28;20618;-78
2022/08/25 20:33:09;;;;;;;23.75;3.95;;;;;;;28.60;37.93;98105.41;5020663;28;20446;-79
2022/08/25 20:35:35;;;;;;;21.63;3.63;;;;;;;28.63;37.78;98121.81;5036998;28;20519;-79
2022/08/25 20:38:00;;;;;;;22.42;3.72;;;;;;;28.63;37.11;98115.63;5037004;28;20112;-79
2022/08/25 20:40:28;;;;;;;29.45;4.10;;;;;;;28.66;37.41;98115.94;5036915;28;20041;-79
2022/08/25 20:42:54;;;;;;;25.88;4.07;;;;;;;28.66;36.12;98118.63;5053324;28;20033;-79
2022/08/25 20:45:21;;;;;;;27.30;4.15;;;;;;;28.65;37.13;98108.13;5053561;28;20090;-79
2022/08/25 20:47:47;;;;;;;36.15;3.90;;;;;;;28.65;35.90;98108.13;5053877;28;20036;-78
2022/08/25 20:50:13;;;;;;;31.70;4.07;;;;;;;28.61;35.26;98096.28;5053401;28;20037;-78
2022/08/25 20:52:40;;;;;;;22.88;3.55;;;;;;;28.60;35.20;98102.72;5053330;28;20036;-78
2022/08/25 20:55:06;;;;;;;30.98;3.42;;;;;;;28.55;35.39;98095.38;5052949;28;20032;-79
2022/08/25 20:57:32;;;;;;;28.42;3.80;;;;;;;28.60;35.38;98105.41;5052706;28;20029;-78
2022/08/25 20:59:58;;;;;;;23.27;3.75;;;;;;;28.60;36.04;98097.34;5036405;28;20128;-78
2022/08/25 21:02:24;;;;;;;26.33;3.45;;;;;;;28.60;36.38;98092.78;5036256;28;20036;-79
2022/08/25 21:04:51;;;;;;;18.02;3.58;;;;;;;28.64;36.44;98093.91;5053008;28;20500;-78
2022/08/25 21:07:17;;;;;;;32.00;3.90;;;;;;;28.64;36.75;98099.28;5035503;28;20079;-79
2022/08/25 21:09:43;;;;;;;27.55;4.25;;;;;;;28.60;36.80;98095.47;5035569;28;20033;-77
2022/08/25 21:12:09;;;;;;;28.60;4.63;;;;;;;28.55;37.06;98100.75;5052558;28;20033;-78
2022/08/25 21:14:36;;;;;;;27.65;4.75;;;;;;;28.57;37.10;98097.81;5052637;28;20078;-78
2022/08/25 21:17:02;;;;;;;33.08;4.00;;;;;;;28.55;37.12;98100.75;5052905;28;20029;-78
2022/08/25 21:19:30;;;;;;;32.03;3.88;;;;;;;28.45;36.60;98101.44;5052228;28;20563;-79
2022/08/25 21:21:57;;;;;;;31.13;4.03;;;;;;;28.42;37.49;98093.06;5052590;28;20021;-77
2022/08/25 21:24:23;;;;;;;21.23;3.53;;;;;;;28.40;37.27;98093.31;5053544;28;20120;-78
2022/08/25 21:26:51;;;;;;;37.00;4.68;;;;;;;28.40;36.32;98095.16;5051245;28;20044;-78
2022/08/25 21:29:17;;;;;;;25.98;3.78;;;;;;;28.36;35.54;98099.44;5052422;28;20033;-78
2022/08/25 21:31:42;;;;;;;29.27;3.70;;;;;;;28.29;36.46;98094.22;5036000;28;20098;-78
2022/08/25 21:34:10;;;;;;;27.15;3.40;;;;;;;28.29;36.54;98097.72;5051790;28;20045;-77
2022/08/25 21:36:35;;;;;;;29.20;3.83;;;;;;;28.29;35.81;98092.38;5052358;28;20025;-78
2022/08/25 21:39:01;;;;;;;29.52;3.88;;;;;;;28.25;35.84;98093.09;5052096;28;20476;-77
2022/08/25 21:41:29;;;;;;;35.80;4.82;;;;;;;28.28;35.83;98096.09;5035465;28;20087;-77
2022/08/25 21:43:55;;;;;;;25.77;3.90;;;;;;;28.30;35.64;98096.66;5035096;28;20041;-78
2022/08/25 21:46:22;;;;;;;30.98;3.88;;;;;;;28.31;34.70;98097.50;5035332;28;20460;-78
2022/08/25 21:48:51;;;;;;;28.08;3.78;;;;;;;28.34;35.21;98088.94;5051967;28;20086;-78
2022/08/25 21:51:21;;;;;;;22.92;3.97;;;;;;;28.34;34.34;98103.16;5052124;28;20025;-79
2022/08/25 21:53:47;;;;;;;26.55;3.42;;;;;;;28.37;34.52;98099.19;5050918;28;20041;-78
2022/08/25 21:56:15;;;;;;;32.10;4.22;;;;;;;28.38;33.76;98108.03;5035307;28;20190;-77
2022/08/25 21:58:41;;;;;;;43.10;4.18;;;;;;;28.38;33.79;98110.72;5034529;28;20106;-78
2022/08/25 22:01:11;;;;;;;26.10;4.18;;;;;;;28.38;33.95;98105.34;5035557;28;20133;-77
2022/08/25 22:03:36;;;;;;;36.65;4.25;;;;;;;28.41;34.09;98110.22;5034428;28;20447;-77
2022/08/25 22:06:02;;;;;;;41.33;4.72;;;;;;;28.42;33.51;98093.06;5051711;28;20108;-76
2022/08/25 22:08:29;;;;;;;35.00;3.85;;;;;;;28.44;33.30;98101.69;5035689;28;20055;-76
2022/08/25 22:10:55;;;;;;;30.88;3.55;;;;;;;28.42;33.63;98099.25;5018898;28;20127;-77
2022/08/25 22:13:20;;;;;;;38.00;4.70;;;;;;;28.38;32.79;98102.66;5034416;28;20052;-76
2022/08/25 22:15:46;;;;;;;30.80;4.13;;;;;;;28.38;33.15;98094.63;5034950;28;20075;-76
2022/08/25 22:18:11;;;;;;;32.20;4.35;;;;;;;28.47;33.55;98099.28;5035149;28;20033;-76
2022/08/25 22:20:37;;;;;;;38.58;4.63;;;;;;;28.43;33.15;98094.66;5034960;28;20072;-77
2022/08/25 22:23:02;;;;;;;31.20;4.10;;;;;;;28.43;32.84;98092.81;5034590;28;20091;-77
2022/08/25 22:25:28;;;;;;;29.75;4.03;;;;;;;28.38;33.05;98075.81;5051853;28;20075;-77
2022/08/25 22:27:55;;;;;;;31.33;4.07;;;;;;;28.46;33.67;98078.88;5034338;28;20045;-77
2022/08/25 22:30:21;;;;;;;34.25;4.63;;;;;;;28.46;32.84;98083.44;5052291;28;20120;-77
2022/08/25 22:32:46;;;;;;;36.70;4.03;;;;;;;28.48;33.14;98086.69;5051120;28;20116;-77
2022/08/25 22:35:12;;;;;;;30.35;4.00;;;;;;;28.42;33.10;98076.97;5034644;28;20025;-77
2022/08/25 22:37:37;;;;;;;25.30;3.97;;;;;;;28.46;32.42;98086.13;5051095;28;20476;-76
2022/08/25 22:40:03;;;;;;;33.78;4.53;;;;;;;28.44;33.13;98085.56;5052221;28;20029;-77
2022/08/25 22:42:29;;;;;;;29.00;3.63;;;;;;;28.41;32.40;98081.50;5051715;28;20440;-76
2022/08/25 22:44:54;;;;;;;28.58;3.83;;;;;;;28.42;32.66;98083.13;5033993;28;20041;-77
2022/08/25 22:47:20;;;;;;;35.17;4.00;;;;;;;28.32;32.05;98067.72;5050966;28;20039;-77
2022/08/25 22:49:45;;;;;;;27.35;3.78;;;;;;;28.29;32.44;98064.69;5050980;28;20067;-77
2022/08/25 22:52:11;;;;;;;32.50;3.83;;;;;;;28.25;32.68;98053.66;5050747;28;20051;-77
2022/08/25 22:54:38;;;;;;;38.83;4.25;;;;;;;28.22;32.50;98056.84;5017815;28;20111;-77
2022/08/25 22:57:03;;;;;;;39.30;4.28;;;;;;;28.21;31.97;98049.03;5017677;28;20053;-77
2022/08/25 22:59:30;;;;;;;46.10;4.28;;;;;;;28.18;31.94;98049.53;5052203;28;20036;-77
2022/08/25 23:01:55;;;;;;;28.80;3.60;;;;;;;28.21;31.55;98044.50;5034350;28;20467;-77
2022/08/25 23:04:21;;;;;;;29.00;3.90;;;;;;;28.22;31.93;98039.94;5033959;28;20037;-77
2022/08/25 23:06:46;;;;;;;28.67;3.97;;;;;;;28.22;32.26;98042.63;5034159;28;20043;-76
2022/08/25 23:09:12;;;;;;;32.25;4.60;;;;;;;28.11;31.14;98034.41;5034195;28;20033;-77
2022/08/25 23:11:38;;;;;;;34.10;3.70;;;;;;;28.13;32.13;98031.50;5051108;28;20519;-76
2022/08/25 23:14:05;;;;;;;33.15;4.05;;;;;;;28.13;31.39;98026.97;5050436;28;20126;-77
2022/08/25 23:16:31;;;;;;;32.90;3.67;;;;;;;28.13;31.27;98026.13;5050772;28;20032;-77
2022/08/25 23:18:57;;;;;;;24.05;3.75;;;;;;;28.12;30.95;98011.91;5033612;28;20069;-77
2022/08/25 23:24:07;;;;;;;17.33;3.13;;;;;;;28.01;31.76;97999.44;5051150;28;20099;-77
2022/08/25 23:26:33;;;;;;;28.95;3.20;;;;;;;27.98;30.69;97999.94;5033944;28;20498;-77
2022/08/25 23:28:58;;;;;;;21.42;2.85;;;;;;;27.97;30.50;97996.44;5050483;28;20059;-77
2022/08/25 23:31:24;;;;;;;30.10;3.28;;;;;;;28.00;30.86;97986.25;5050503;28;20040;-77
2022/08/25 23:33:50;;;;;;;21.17;3.22;;;;;;;27.95;30.76;97976.28;5033972;28;20079;-78
2022/08/25 23:36:16;;;;;;;20.83;3.17;;;;;;;27.91;31.17;97975.13;5033828;28;20481;-78
2022/08/25 23:38:42;;;;;;;24.02;3.05;;;;;;;27.95;30.71;97978.97;5050655;28;20032;-78
2022/08/25 23:41:13;;;;;;;29.48;3.13;;;;;;;27.94;30.39;97974.63;5050777;28;20043;-77
2022/08/25 23:43:38;;;;;;;29.95;3.53;;;;;;;27.91;30.96;97975.13;5050522;28;20032;-78
2022/08/25 23:46:04;;;;;;;32.30;4.43;;;;;;;27.96;29.74;97980.59;5050607;28;20484;-77
2022/08/25 23:48:30;;;;;;;33.00;3.88;;;;;;;27.91;29.87;97975.13;5050891;28;20025;-77
2022/08/25 23:50:55;;;;;;;32.17;3.50;;;;;;;27.86;29.28;97978.53;5054704;28;20036;-77
2022/08/25 23:53:21;;;;;;;21.05;3.20;;;;;;;27.81;29.85;97986.53;5054223;28;20021;-77
2022/08/25 23:55:47;;;;;;;23.48;3.28;;;;;;;27.69;29.70;97977.75;5054334;28;20033;-77
2022/08/25 23:58:13;;;;;;;24.58;3.03;;;;;;;27.77;30.14;97988.09;5054010;28;20035;-77
